Kalkaska, MI (49646)

8:55 PM EST on March 06, 2015 (GMT -0500)
Kalkaska | Change Station
CLOSE
Current Station
Personal Weather Station
Location: Kalkaska, MI
Elevation: 1030 ft
Nearby Weather Stations

Elev 1030 ft 44.74 °N, 85.18 °W | Updated 20 seconds ago

Overcast
Overcast
21.8 °F
Feels Like 16 °F
N
4.0
Wind Variable Wind from SW
Gusts 19.0 mph

Today
High -- | Low -- °F
--% Chance of Precip.
Yesterday
High -- | Low -- °F
Precip. -- in
7:09 AM 6:34 PM
Full, 98% visible
Pressure 30.02 in
Visibility 10.0 miles
Clouds Mostly Cloudy 2600 ft
Overcast 7000 ft
Windchill 16 °F
Dew Point 16 °F
Humidity 77%
Rainfall in
Snow Depth Not available.
UV 0 out of 12
Pollen .40 out of 12
Air Quality Not available.
Flu Activity Not available.
METAR KGOV 070135Z AUTO 22010G17KT 10SM BKN026 OVC070 M06/M12 A3002 RMK AO2 T10631125

More Conditions Fewer Conditions

Pressure 30.02 in
Visibility 10.0 miles
Clouds Mostly Cloudy 2600 ft
Overcast 7000 ft
Windchill 16 °F
Dew Point 16 °F
Humidity 77%
Rainfall in
Snow Depth Not available.
UV 0 out of 12
Pollen .40 out of 12
Air Quality Not available.
Flu Activity Not available.
METAR KGOV 070135Z AUTO 22010G17KT 10SM BKN026 OVC070 M06/M12 A3002 RMK AO2 T10631125

More Conditions Fewer Conditions

Nowcast | as of 8:00 PM EST on March 6, 2015

At 9 PM...mostly cloudy. Chance of snow showers. Temperature 22. Southwest winds 9 mph. At 11 PM...mostly cloudy. Chance of snow showers. Temperature 21. Southwest winds 8 mph. At 1 am...mostly cloudy. Temperature 21. West winds 7 mph. At 3 am...mostly cloudy. Temperature 20. Southwest winds 5 mph.

×

10-Day Weather Forecast

Almanac

Astronomy

Mar. 06, 2015 Rise Set
Actual Time
Civil Twilight
Nautical Twilight
Astronomical Twilight
Moon
Length of Visible Light
Length of Day
Tomorrow will be .
, % of the Moon is Illuminated

Today's Extremes

State Highs State Lows

Community

WunderPhotos

Upload Photos

1,803,494 photos uploaded!

WunderBlogs® & News

Nearby

Air Quality

  Air Quality AQ Index Pollutant
Not available.

Snow Depth

Station Depth Elevation

Earthquake Activity

City Distance Mag. Time & Date
Minimum magnitude displayed is 2.5.

Coastal Water Temperatures

Place Temperature

Nearby Weather Stations